Portada
METAR-TAF:

METAR-TAF

Aeroports :

Besiers, França

latitud: 43-19N, longitud: 003-21E, altitud: 17 m

Observació

L'informe es va fer fa 30 minuts, a les 00:30 UTC
Vent 6 kt del Oest
Temperatura 6°C
Humitat 87%
Pressió 1000 hPa
Visibilitat 10 km o més
Escasses núvols a una alçada de 4500 ft
Cel cobert a una alçada de 9200 ft

METAR: LFMU 060030Z AUTO 26006KT 9999 FEW045 OVC092 06/04 Q1000

Hora: 02:00 (01:00 UTC)

Pronòstic

L'informe es va fer fa 11 hores i 0 minuts, a les 14:00 UTC
Pronòstic vàlid del 05 a les 15 UTC al 06 a les 15 UTC
Vent 5 kt del Oest
Visibilitat 10 km o més
sense núvols per sota de 1500 mi sense presència de cumulonimbus.
Temporalment
l' 06 a les 03 UTC al 06 a les 15 UTC
Vent 15 kt del Oest amb ràfegues de 30 kt

TAF: LFMU 051400Z 0515/0615 27005KT CAVOK TEMPO 0603/0615 28015G30KT

Observacions i pronòstics meteorològics de més de 4000 aeroports (METAR i TAF).

Les estacions disponibles són els punts grocs i vermells al mapa.

Posi el ratolí al punt desitjat per veure el nom de l'estació.

Feu clic per veure les observacions i els pronòstics meteorològics.

Per canviar el mapa: feu clic els botons verds amb una creu de color negre per apropar; al botó verd amb un guió per allunyar la imatge; o en les fletxes verdes per a mapes adjacents.


METAR-TAF: